Inwood, Iowa
Current Conditions -  °F | °C
As of 7:54 PM on Saturday 20 Dec 2014 (Local Time) from KLYV Reporting Station
Haze Haze  
Wind Chill: 24°   Ceiling: 400
Heat Index: 32°   Visibility: 2.5mi
Dew Point: 30°   Wind: 10mph
Humidity: 93%   Direction: 170°S
Pressure: 30.01"   Gusts: NA
Location:  43.31°N, 96.43°W
Report Text: KLYV 210154Z AUTO 17009KT 2 1/2SM BR OVC004 00/M01 A3001 RMK AO2
Loading
Personal Weather Stations






























Interactive Weather Map New forecast layout! Learn more

10-Day Weather Forecast

Advertisements
Track Severe Weather on mobile